sensor_id;sensor_type;location;lat;lon;timestamp;pressure;altitude;pressure_sealevel;temperature;humidity
63306;BME280;50735;52.060;1.248;2022-12-18T00:02:13;102133.32;;;0.26;56.78
63306;BME280;50735;52.060;1.248;2022-12-18T00:04:39;102137.07;;;0.26;57.00
63306;BME280;50735;52.060;1.248;2022-12-18T00:07:07;102134.54;;;0.10;57.26
63306;BME280;50735;52.060;1.248;2022-12-18T00:09:34;102136.41;;;0.42;56.89
63306;BME280;50735;52.060;1.248;2022-12-18T00:12:01;102138.77;;;0.37;56.40
63306;BME280;50735;52.060;1.248;2022-12-18T00:14:28;102144.15;;;0.43;56.33
63306;BME280;50735;52.060;1.248;2022-12-18T00:16:55;102138.20;;;0.60;55.75
63306;BME280;50735;52.060;1.248;2022-12-18T00:19:22;102133.41;;;0.68;55.44
63306;BME280;50735;52.060;1.248;2022-12-18T00:21:49;102133.23;;;0.75;55.36
63306;BME280;50735;52.060;1.248;2022-12-18T00:24:15;102138.28;;;0.66;55.51
63306;BME280;50735;52.060;1.248;2022-12-18T00:26:42;102144.74;;;0.54;56.10
63306;BME280;50735;52.060;1.248;2022-12-18T00:29:13;102146.71;;;0.56;55.71
63306;BME280;50735;52.060;1.248;2022-12-18T00:31:40;102147.45;;;0.50;55.79
63306;BME280;50735;52.060;1.248;2022-12-18T00:34:09;102148.33;;;0.59;55.47
63306;BME280;50735;52.060;1.248;2022-12-18T00:36:36;102147.64;;;0.22;55.92
63306;BME280;50735;52.060;1.248;2022-12-18T00:39:04;102151.20;;;0.38;56.40
63306;BME280;50735;52.060;1.248;2022-12-18T00:41:32;102153.98;;;0.02;57.16
63306;BME280;50735;52.060;1.248;2022-12-18T00:43:59;102156.30;;;-0.08;57.25
63306;BME280;50735;52.060;1.248;2022-12-18T00:46:26;102152.70;;;-0.08;57.12
63306;BME280;50735;52.060;1.248;2022-12-18T00:48:53;102158.16;;;0.10;56.68
63306;BME280;50735;52.060;1.248;2022-12-18T00:51:20;102156.92;;;0.13;56.80
63306;BME280;50735;52.060;1.248;2022-12-18T00:53:46;102156.13;;;0.46;56.47
63306;BME280;50735;52.060;1.248;2022-12-18T00:56:13;102149.10;;;0.25;56.50
63306;BME280;50735;52.060;1.248;2022-12-18T00:58:40;102149.21;;;0.04;56.78
63306;BME280;50735;52.060;1.248;2022-12-18T01:01:07;102144.24;;;0.09;56.27
63306;BME280;50735;52.060;1.248;2022-12-18T01:03:34;102142.74;;;0.07;56.36
63306;BME280;50735;52.060;1.248;2022-12-18T01:06:05;102141.34;;;0.45;56.56
63306;BME280;50735;52.060;1.248;2022-12-18T01:08:33;102144.09;;;-0.43;57.72
63306;BME280;50735;52.060;1.248;2022-12-18T01:10:59;102147.37;;;-0.14;56.94
63306;BME280;50735;52.060;1.248;2022-12-18T01:13:27;102148.28;;;-0.09;57.31
63306;BME280;50735;52.060;1.248;2022-12-18T01:15:53;102143.84;;;-0.28;56.69
63306;BME280;50735;52.060;1.248;2022-12-18T01:18:21;102138.69;;;-0.44;57.53
63306;BME280;50735;52.060;1.248;2022-12-18T01:20:48;102136.79;;;-0.27;57.14
63306;BME280;50735;52.060;1.248;2022-12-18T01:23:15;102133.04;;;-0.21;56.85
63306;BME280;50735;52.060;1.248;2022-12-18T01:25:42;102129.72;;;-0.48;57.14
63306;BME280;50735;52.060;1.248;2022-12-18T01:28:09;102123.03;;;-0.38;56.82
63306;BME280;50735;52.060;1.248;2022-12-18T01:30:36;102122.38;;;-0.28;56.88
63306;BME280;50735;52.060;1.248;2022-12-18T01:33:04;102116.80;;;-0.83;57.73
63306;BME280;50735;52.060;1.248;2022-12-18T01:35:31;102114.13;;;-0.25;57.32
63306;BME280;50735;52.060;1.248;2022-12-18T01:37:58;102115.46;;;-0.66;57.25
63306;BME280;50735;52.060;1.248;2022-12-18T01:40:25;102115.05;;;-0.07;56.82
63306;BME280;50735;52.060;1.248;2022-12-18T01:42:52;102110.68;;;-0.11;56.70
63306;BME280;50735;52.060;1.248;2022-12-18T01:45:25;102112.41;;;-0.08;56.14
63306;BME280;50735;52.060;1.248;2022-12-18T01:47:54;102101.89;;;-0.17;55.81
63306;BME280;50735;52.060;1.248;2022-12-18T01:50:24;102102.74;;;-0.28;56.46
63306;BME280;50735;52.060;1.248;2022-12-18T01:52:55;102101.58;;;0.15;56.06
63306;BME280;50735;52.060;1.248;2022-12-18T01:55:25;102102.29;;;-0.36;56.74
63306;BME280;50735;52.060;1.248;2022-12-18T01:57:55;102100.23;;;-0.04;55.71
63306;BME280;50735;52.060;1.248;2022-12-18T02:00:24;102095.62;;;0.10;55.29
63306;BME280;50735;52.060;1.248;2022-12-18T02:02:52;102093.17;;;0.21;55.53
63306;BME280;50735;52.060;1.248;2022-12-18T02:05:26;102093.22;;;0.20;55.29
63306;BME280;50735;52.060;1.248;2022-12-18T02:08:03;102096.04;;;-0.10;55.48
63306;BME280;50735;52.060;1.248;2022-12-18T02:10:38;102095.94;;;0.12;55.48
63306;BME280;50735;52.060;1.248;2022-12-18T02:13:13;102099.89;;;0.03;55.63
63306;BME280;50735;52.060;1.248;2022-12-18T02:15:46;102108.63;;;0.07;55.36
63306;BME280;50735;52.060;1.248;2022-12-18T02:18:20;102103.66;;;0.21;55.31
63306;BME280;50735;52.060;1.248;2022-12-18T02:20:55;102099.08;;;0.16;55.18
63306;BME280;50735;52.060;1.248;2022-12-18T02:23:40;102099.80;;;-0.13;54.81
63306;BME280;50735;52.060;1.248;2022-12-18T02:26:16;102098.13;;;0.34;54.61
63306;BME280;50735;52.060;1.248;2022-12-18T02:28:47;102091.39;;;0.44;54.38
63306;BME280;50735;52.060;1.248;2022-12-18T02:31:19;102083.67;;;0.03;55.16
63306;BME280;50735;52.060;1.248;2022-12-18T02:33:49;102074.91;;;0.21;54.88
63306;BME280;50735;52.060;1.248;2022-12-18T02:36:18;102071.51;;;0.22;54.88
63306;BME280;50735;52.060;1.248;2022-12-18T02:38:46;102070.94;;;0.19;55.01
63306;BME280;50735;52.060;1.248;2022-12-18T02:41:14;102069.24;;;0.24;54.74
63306;BME280;50735;52.060;1.248;2022-12-18T02:43:46;102069.31;;;-0.19;54.85
63306;BME280;50735;52.060;1.248;2022-12-18T02:46:27;102074.90;;;0.26;54.66
63306;BME280;50735;52.060;1.248;2022-12-18T02:49:00;102079.45;;;0.14;55.06
63306;BME280;50735;52.060;1.248;2022-12-18T02:51:31;102077.67;;;-0.06;55.08
63306;BME280;50735;52.060;1.248;2022-12-18T02:54:06;102084.95;;;0.24;55.10
63306;BME280;50735;52.060;1.248;2022-12-18T02:56:39;102092.83;;;0.06;54.88
63306;BME280;50735;52.060;1.248;2022-12-18T02:59:13;102095.32;;;0.28;54.91
63306;BME280;50735;52.060;1.248;2022-12-18T03:01:45;102095.78;;;0.22;55.11
63306;BME280;50735;52.060;1.248;2022-12-18T03:04:22;102097.34;;;0.35;54.80
63306;BME280;50735;52.060;1.248;2022-12-18T03:06:55;102097.38;;;0.42;54.51
63306;BME280;50735;52.060;1.248;2022-12-18T03:09:26;102091.42;;;0.32;54.77
63306;BME280;50735;52.060;1.248;2022-12-18T03:11:57;102088.26;;;0.25;54.98
63306;BME280;50735;52.060;1.248;2022-12-18T03:14:29;102090.78;;;-0.04;54.69
63306;BME280;50735;52.060;1.248;2022-12-18T03:17:00;102093.50;;;0.37;54.54
63306;BME280;50735;52.060;1.248;2022-12-18T03:19:29;102097.92;;;0.02;54.44
63306;BME280;50735;52.060;1.248;2022-12-18T03:22:00;102107.92;;;0.20;54.39
63306;BME280;50735;52.060;1.248;2022-12-18T03:24:29;102110.46;;;0.21;54.41
63306;BME280;50735;52.060;1.248;2022-12-18T03:27:01;102106.97;;;0.47;54.42
63306;BME280;50735;52.060;1.248;2022-12-18T03:29:32;102108.67;;;0.49;54.29
63306;BME280;50735;52.060;1.248;2022-12-18T03:32:03;102113.40;;;0.30;54.11
63306;BME280;50735;52.060;1.248;2022-12-18T03:34:34;102119.37;;;0.31;54.83
63306;BME280;50735;52.060;1.248;2022-12-18T03:37:03;102117.00;;;0.36;54.48
63306;BME280;50735;52.060;1.248;2022-12-18T03:39:30;102113.23;;;-0.19;55.25
63306;BME280;50735;52.060;1.248;2022-12-18T03:42:01;102117.62;;;-0.22;55.76
63306;BME280;50735;52.060;1.248;2022-12-18T03:44:36;102115.16;;;-0.14;56.14
63306;BME280;50735;52.060;1.248;2022-12-18T03:47:12;102106.89;;;-0.55;56.25
63306;BME280;50735;52.060;1.248;2022-12-18T03:49:46;102094.03;;;0.02;55.63
63306;BME280;50735;52.060;1.248;2022-12-18T03:52:20;102089.57;;;0.21;55.22
63306;BME280;50735;52.060;1.248;2022-12-18T03:54:50;102088.00;;;0.26;55.28
63306;BME280;50735;52.060;1.248;2022-12-18T03:57:19;102084.11;;;0.23;55.41
63306;BME280;50735;52.060;1.248;2022-12-18T03:59:50;102079.11;;;0.22;55.33
63306;BME280;50735;52.060;1.248;2022-12-18T04:02:20;102077.87;;;0.30;54.94
63306;BME280;50735;52.060;1.248;2022-12-18T04:04:51;102067.89;;;0.30;55.01
63306;BME280;50735;52.060;1.248;2022-12-18T04:07:19;102064.23;;;0.15;55.24
63306;BME280;50735;52.060;1.248;2022-12-18T04:09:48;102059.62;;;0.02;55.37
63306;BME280;50735;52.060;1.248;2022-12-18T04:12:16;102054.51;;;-0.06;55.63
63306;BME280;50735;52.060;1.248;2022-12-18T04:14:43;102053.72;;;-0.00;55.01
63306;BME280;50735;52.060;1.248;2022-12-18T04:17:10;102049.90;;;-0.31;55.54
63306;BME280;50735;52.060;1.248;2022-12-18T04:19:37;102050.02;;;-0.60;56.12
63306;BME280;50735;52.060;1.248;2022-12-18T04:22:03;102051.57;;;-0.87;55.90
63306;BME280;50735;52.060;1.248;2022-12-18T04:24:31;102050.95;;;-1.00;55.81
63306;BME280;50735;52.060;1.248;2022-12-18T04:26:58;102055.01;;;-0.75;56.14
63306;BME280;50735;52.060;1.248;2022-12-18T04:29:25;102055.61;;;-0.93;56.47
63306;BME280;50735;52.060;1.248;2022-12-18T04:31:51;102047.30;;;-0.72;56.07
63306;BME280;50735;52.060;1.248;2022-12-18T04:34:18;102044.06;;;-0.48;55.17
63306;BME280;50735;52.060;1.248;2022-12-18T04:36:44;102048.72;;;-0.34;54.98
63306;BME280;50735;52.060;1.248;2022-12-18T04:39:11;102051.56;;;-0.10;54.44
63306;BME280;50735;52.060;1.248;2022-12-18T04:41:38;102050.43;;;-0.04;53.51
63306;BME280;50735;52.060;1.248;2022-12-18T04:44:05;102046.32;;;-0.23;53.89
63306;BME280;50735;52.060;1.248;2022-12-18T04:46:32;102038.00;;;-0.13;53.75
63306;BME280;50735;52.060;1.248;2022-12-18T04:48:59;102025.69;;;0.00;53.41
63306;BME280;50735;52.060;1.248;2022-12-18T04:51:26;102019.56;;;0.02;52.96
63306;BME280;50735;52.060;1.248;2022-12-18T04:53:53;102021.23;;;-0.01;53.04
63306;BME280;50735;52.060;1.248;2022-12-18T04:56:20;102023.39;;;-0.10;53.16
63306;BME280;50735;52.060;1.248;2022-12-18T04:58:47;102020.93;;;-0.18;53.50
63306;BME280;50735;52.060;1.248;2022-12-18T05:01:16;102016.71;;;-0.23;53.56
63306;BME280;50735;52.060;1.248;2022-12-18T05:03:43;102012.78;;;-0.26;53.64
63306;BME280;50735;52.060;1.248;2022-12-18T05:06:11;102008.61;;;-0.08;53.19
63306;BME280;50735;52.060;1.248;2022-12-18T05:08:37;102008.61;;;-0.05;53.29
63306;BME280;50735;52.060;1.248;2022-12-18T05:11:07;102008.21;;;0.15;52.83
63306;BME280;50735;52.060;1.248;2022-12-18T05:13:35;102006.58;;;0.16;52.74
63306;BME280;50735;52.060;1.248;2022-12-18T05:16:03;102003.31;;;-0.02;52.69
63306;BME280;50735;52.060;1.248;2022-12-18T05:18:30;101999.64;;;-0.04;53.38
63306;BME280;50735;52.060;1.248;2022-12-18T05:20:57;101991.90;;;-0.11;53.48
63306;BME280;50735;52.060;1.248;2022-12-18T05:23:25;101989.24;;;-0.14;53.69
63306;BME280;50735;52.060;1.248;2022-12-18T05:25:53;101974.86;;;-0.28;54.18
63306;BME280;50735;52.060;1.248;2022-12-18T05:28:20;101968.06;;;-0.62;54.53
63306;BME280;50735;52.060;1.248;2022-12-18T05:30:49;101971.75;;;-0.41;54.66
63306;BME280;50735;52.060;1.248;2022-12-18T05:33:16;101969.76;;;-0.57;55.16
63306;BME280;50735;52.060;1.248;2022-12-18T05:35:44;101966.04;;;-0.58;55.33
63306;BME280;50735;52.060;1.248;2022-12-18T05:38:11;101957.70;;;-0.71;55.71
63306;BME280;50735;52.060;1.248;2022-12-18T05:40:41;101955.72;;;-0.83;56.21
63306;BME280;50735;52.060;1.248;2022-12-18T05:43:09;101947.06;;;-0.91;56.17
63306;BME280;50735;52.060;1.248;2022-12-18T05:45:37;101941.37;;;-0.85;56.19
63306;BME280;50735;52.060;1.248;2022-12-18T05:48:04;101930.24;;;-0.77;55.99
63306;BME280;50735;52.060;1.248;2022-12-18T05:50:34;101926.44;;;-0.68;55.95
63306;BME280;50735;52.060;1.248;2022-12-18T05:53:01;101922.58;;;-0.60;55.31
63306;BME280;50735;52.060;1.248;2022-12-18T05:55:28;101914.41;;;-0.52;55.26
63306;BME280;50735;52.060;1.248;2022-12-18T05:57:54;101906.76;;;-0.15;55.22
63306;BME280;50735;52.060;1.248;2022-12-18T06:00:21;101902.67;;;-0.53;54.95
63306;BME280;50735;52.060;1.248;2022-12-18T06:02:48;101896.26;;;-0.52;54.77
63306;BME280;50735;52.060;1.248;2022-12-18T06:05:15;101887.29;;;-0.55;55.04
63306;BME280;50735;52.060;1.248;2022-12-18T06:07:42;101880.32;;;-0.54;55.05
63306;BME280;50735;52.060;1.248;2022-12-18T06:10:10;101876.39;;;-0.69;55.31
63306;BME280;50735;52.060;1.248;2022-12-18T06:12:37;101878.86;;;-0.78;55.43
63306;BME280;50735;52.060;1.248;2022-12-18T06:15:05;101874.26;;;-0.55;55.41
63306;BME280;50735;52.060;1.248;2022-12-18T06:17:33;101872.19;;;-0.72;55.76
63306;BME280;50735;52.060;1.248;2022-12-18T06:20:00;101878.11;;;-0.43;54.88
63306;BME280;50735;52.060;1.248;2022-12-18T06:22:27;101874.05;;;-0.26;54.62
63306;BME280;50735;52.060;1.248;2022-12-18T06:24:54;101871.26;;;-0.31;54.22
63306;BME280;50735;52.060;1.248;2022-12-18T06:27:21;101863.36;;;-0.14;54.16
63306;BME280;50735;52.060;1.248;2022-12-18T06:29:48;101854.07;;;-0.03;53.80
63306;BME280;50735;52.060;1.248;2022-12-18T06:32:15;101847.74;;;-0.09;53.65
63306;BME280;50735;52.060;1.248;2022-12-18T06:34:42;101857.15;;;-0.18;53.46
63306;BME280;50735;52.060;1.248;2022-12-18T06:37:09;101860.40;;;-0.23;53.27
63306;BME280;50735;52.060;1.248;2022-12-18T06:39:36;101848.12;;;-0.44;53.28
63306;BME280;50735;52.060;1.248;2022-12-18T06:42:03;101832.32;;;-0.65;53.49
63306;BME280;50735;52.060;1.248;2022-12-18T06:44:30;101836.21;;;-0.70;53.30
63306;BME280;50735;52.060;1.248;2022-12-18T06:46:56;101838.00;;;-0.93;53.85
63306;BME280;50735;52.060;1.248;2022-12-18T06:49:23;101838.90;;;-0.94;54.39
63306;BME280;50735;52.060;1.248;2022-12-18T06:51:50;101835.95;;;-1.18;54.75
63306;BME280;50735;52.060;1.248;2022-12-18T06:54:17;101831.45;;;-1.31;55.40
63306;BME280;50735;52.060;1.248;2022-12-18T06:56:45;101828.70;;;-1.29;55.82
63306;BME280;50735;52.060;1.248;2022-12-18T06:59:12;101834.12;;;-1.15;55.79
63306;BME280;50735;52.060;1.248;2022-12-18T07:01:40;101840.15;;;-1.28;56.50
63306;BME280;50735;52.060;1.248;2022-12-18T07:04:07;101854.27;;;-1.01;56.00
63306;BME280;50735;52.060;1.248;2022-12-18T07:06:34;101852.15;;;-0.96;56.05
63306;BME280;50735;52.060;1.248;2022-12-18T07:09:00;101846.54;;;-0.71;56.47
63306;BME280;50735;52.060;1.248;2022-12-18T07:11:27;101849.54;;;-1.02;57.04
63306;BME280;50735;52.060;1.248;2022-12-18T07:13:54;101861.30;;;-0.83;56.87
63306;BME280;50735;52.060;1.248;2022-12-18T07:16:22;101859.47;;;-0.72;57.07
63306;BME280;50735;52.060;1.248;2022-12-18T07:18:49;101865.10;;;-1.09;57.69
63306;BME280;50735;52.060;1.248;2022-12-18T07:21:18;101871.24;;;-0.72;57.09
63306;BME280;50735;52.060;1.248;2022-12-18T07:23:46;101869.83;;;-0.85;57.57
63306;BME280;50735;52.060;1.248;2022-12-18T07:26:14;101863.54;;;-0.88;57.99
63306;BME280;50735;52.060;1.248;2022-12-18T07:28:41;101857.46;;;-0.89;58.45
63306;BME280;50735;52.060;1.248;2022-12-18T07:31:10;101851.49;;;-0.69;58.10
63306;BME280;50735;52.060;1.248;2022-12-18T07:33:37;101841.35;;;-0.47;57.81
63306;BME280;50735;52.060;1.248;2022-12-18T07:36:06;101839.30;;;-0.43;58.17
63306;BME280;50735;52.060;1.248;2022-12-18T07:38:34;101843.38;;;-0.70;59.11
63306;BME280;50735;52.060;1.248;2022-12-18T07:41:02;101841.39;;;-1.17;59.91
63306;BME280;50735;52.060;1.248;2022-12-18T07:43:29;101845.64;;;-1.11;60.33
63306;BME280;50735;52.060;1.248;2022-12-18T07:45:56;101844.43;;;-0.61;59.45
63306;BME280;50735;52.060;1.248;2022-12-18T07:48:23;101844.26;;;-0.55;59.08
63306;BME280;50735;52.060;1.248;2022-12-18T07:50:50;101849.52;;;-0.75;59.47
63306;BME280;50735;52.060;1.248;2022-12-18T07:53:17;101843.72;;;-0.93;59.57
63306;BME280;50735;52.060;1.248;2022-12-18T07:55:44;101841.28;;;-0.44;58.63
63306;BME280;50735;52.060;1.248;2022-12-18T07:58:11;101842.40;;;-0.34;58.88
63306;BME280;50735;52.060;1.248;2022-12-18T08:00:37;101845.69;;;-0.77;59.20
63306;BME280;50735;52.060;1.248;2022-12-18T08:03:04;101845.72;;;-0.58;59.09
63306;BME280;50735;52.060;1.248;2022-12-18T08:05:31;101845.49;;;-0.33;58.61
63306;BME280;50735;52.060;1.248;2022-12-18T08:07:58;101844.34;;;-0.83;58.44
63306;BME280;50735;52.060;1.248;2022-12-18T08:10:25;101845.38;;;-0.90;58.25
63306;BME280;50735;52.060;1.248;2022-12-18T08:12:52;101840.84;;;-0.69;58.29
63306;BME280;50735;52.060;1.248;2022-12-18T08:15:18;101836.79;;;-0.65;58.74
63306;BME280;50735;52.060;1.248;2022-12-18T08:17:45;101832.39;;;-0.53;58.85
63306;BME280;50735;52.060;1.248;2022-12-18T08:20:12;101817.90;;;-0.68;58.75
63306;BME280;50735;52.060;1.248;2022-12-18T08:22:38;101811.89;;;-0.96;59.04
63306;BME280;50735;52.060;1.248;2022-12-18T08:25:06;101811.12;;;-0.75;59.29
63306;BME280;50735;52.060;1.248;2022-12-18T08:27:33;101805.06;;;-1.00;60.38
63306;BME280;50735;52.060;1.248;2022-12-18T08:30:00;101802.67;;;-1.19;60.83
63306;BME280;50735;52.060;1.248;2022-12-18T08:32:27;101806.35;;;-1.10;60.96
63306;BME280;50735;52.060;1.248;2022-12-18T08:34:55;101802.52;;;-0.62;60.71
63306;BME280;50735;52.060;1.248;2022-12-18T08:37:21;101798.72;;;-0.98;60.74
63306;BME280;50735;52.060;1.248;2022-12-18T08:39:48;101801.64;;;-0.87;60.64
63306;BME280;50735;52.060;1.248;2022-12-18T08:42:15;101805.44;;;-0.87;60.47
63306;BME280;50735;52.060;1.248;2022-12-18T08:44:42;101809.30;;;-0.85;60.54
63306;BME280;50735;52.060;1.248;2022-12-18T08:47:09;101809.07;;;-0.80;60.09
63306;BME280;50735;52.060;1.248;2022-12-18T08:49:36;101807.34;;;-0.64;59.93
63306;BME280;50735;52.060;1.248;2022-12-18T08:52:02;101800.62;;;-1.04;60.04
63306;BME280;50735;52.060;1.248;2022-12-18T08:54:29;101811.56;;;-1.13;61.37
63306;BME280;50735;52.060;1.248;2022-12-18T08:56:56;101793.56;;;-1.01;61.19
63306;BME280;50735;52.060;1.248;2022-12-18T08:59:23;101787.73;;;-1.18;61.24
63306;BME280;50735;52.060;1.248;2022-12-18T09:01:50;101783.04;;;-1.07;61.00
63306;BME280;50735;52.060;1.248;2022-12-18T09:04:19;101787.50;;;-0.76;60.79
63306;BME280;50735;52.060;1.248;2022-12-18T09:06:47;101792.29;;;-0.85;60.86
63306;BME280;50735;52.060;1.248;2022-12-18T09:09:13;101798.84;;;-0.60;60.21
63306;BME280;50735;52.060;1.248;2022-12-18T09:11:40;101809.54;;;-0.84;60.44
63306;BME280;50735;52.060;1.248;2022-12-18T09:14:08;101821.16;;;-0.88;60.37
63306;BME280;50735;52.060;1.248;2022-12-18T09:16:36;101816.86;;;-0.80;60.08
63306;BME280;50735;52.060;1.248;2022-12-18T09:19:04;101811.53;;;-1.19;59.72
63306;BME280;50735;52.060;1.248;2022-12-18T09:21:32;101803.46;;;-0.78;59.76
63306;BME280;50735;52.060;1.248;2022-12-18T09:24:00;101804.25;;;-0.51;58.76
63306;BME280;50735;52.060;1.248;2022-12-18T09:26:27;101800.22;;;-0.89;59.04
63306;BME280;50735;52.060;1.248;2022-12-18T09:28:54;101794.46;;;-1.03;58.98
63306;BME280;50735;52.060;1.248;2022-12-18T09:31:23;101785.21;;;-0.55;58.91
63306;BME280;50735;52.060;1.248;2022-12-18T09:33:49;101779.82;;;-0.70;59.07
63306;BME280;50735;52.060;1.248;2022-12-18T09:36:17;101773.99;;;-0.88;59.32
63306;BME280;50735;52.060;1.248;2022-12-18T09:38:44;101767.31;;;-1.08;59.13
63306;BME280;50735;52.060;1.248;2022-12-18T09:41:36;101770.32;;;-0.85;58.98
63306;BME280;50735;52.060;1.248;2022-12-18T09:44:13;101774.44;;;-0.85;59.00
63306;BME280;50735;52.060;1.248;2022-12-18T09:46:46;101776.66;;;-0.68;61.07
63306;BME280;50735;52.060;1.248;2022-12-18T09:49:17;101773.05;;;-0.92;59.81
63306;BME280;50735;52.060;1.248;2022-12-18T09:51:48;101778.21;;;-0.82;59.43
63306;BME280;50735;52.060;1.248;2022-12-18T09:54:19;101780.64;;;-0.77;59.00
63306;BME280;50735;52.060;1.248;2022-12-18T09:56:48;101783.05;;;-0.60;58.33
63306;BME280;50735;52.060;1.248;2022-12-18T09:59:21;101775.03;;;-0.64;58.22
63306;BME280;50735;52.060;1.248;2022-12-18T10:01:49;101772.24;;;-0.81;58.83
63306;BME280;50735;52.060;1.248;2022-12-18T10:04:16;101764.89;;;-0.88;59.15
63306;BME280;50735;52.060;1.248;2022-12-18T10:06:49;101760.37;;;-0.95;59.51
63306;BME280;50735;52.060;1.248;2022-12-18T10:09:27;101753.84;;;-0.88;59.48
63306;BME280;50735;52.060;1.248;2022-12-18T10:12:02;101746.67;;;-0.98;59.87
63306;BME280;50735;52.060;1.248;2022-12-18T10:14:34;101776.59;;;-0.95;60.02
63306;BME280;50735;52.060;1.248;2022-12-18T10:17:11;101762.26;;;-0.99;60.44
63306;BME280;50735;52.060;1.248;2022-12-18T10:19:45;101767.99;;;-1.16;61.09
63306;BME280;50735;52.060;1.248;2022-12-18T10:22:25;101762.85;;;-0.75;60.04
63306;BME280;50735;52.060;1.248;2022-12-18T10:25:01;101766.81;;;-0.01;63.80
63306;BME280;50735;52.060;1.248;2022-12-18T10:27:29;101763.52;;;-0.14;58.79
63306;BME280;50735;52.060;1.248;2022-12-18T10:29:57;101754.48;;;-0.43;59.41
63306;BME280;50735;52.060;1.248;2022-12-18T10:32:26;101755.75;;;-0.51;59.58
63306;BME280;50735;52.060;1.248;2022-12-18T10:34:54;101752.88;;;-0.69;59.55
63306;BME280;50735;52.060;1.248;2022-12-18T10:37:23;101752.91;;;-0.65;59.89
63306;BME280;50735;52.060;1.248;2022-12-18T10:40:07;101744.58;;;-0.56;59.85
63306;BME280;50735;52.060;1.248;2022-12-18T10:42:35;101751.60;;;-0.79;60.36
63306;BME280;50735;52.060;1.248;2022-12-18T10:45:05;101742.78;;;-0.75;60.31
63306;BME280;50735;52.060;1.248;2022-12-18T10:47:35;101743.17;;;-1.02;60.95
63306;BME280;50735;52.060;1.248;2022-12-18T10:50:03;101738.31;;;-0.99;60.79
63306;BME280;50735;52.060;1.248;2022-12-18T10:52:30;101720.15;;;-0.94;60.39
63306;BME280;50735;52.060;1.248;2022-12-18T10:54:59;101714.96;;;-0.71;60.49
63306;BME280;50735;52.060;1.248;2022-12-18T10:57:32;101715.48;;;-0.57;60.46
63306;BME280;50735;52.060;1.248;2022-12-18T11:00:20;101708.46;;;-0.30;59.71
63306;BME280;50735;52.060;1.248;2022-12-18T11:02:48;101703.06;;;-0.57;60.78
63306;BME280;50735;52.060;1.248;2022-12-18T11:05:26;101691.71;;;-0.47;60.63
63306;BME280;50735;52.060;1.248;2022-12-18T11:07:54;101697.78;;;-0.36;59.97
63306;BME280;50735;52.060;1.248;2022-12-18T11:10:26;101694.22;;;-0.27;59.67
63306;BME280;50735;52.060;1.248;2022-12-18T11:12:55;101686.70;;;-0.50;59.65
63306;BME280;50735;52.060;1.248;2022-12-18T11:15:25;101673.42;;;-0.42;59.56
63306;BME280;50735;52.060;1.248;2022-12-18T11:17:53;101680.38;;;-0.27;59.43
63306;BME280;50735;52.060;1.248;2022-12-18T11:20:26;101663.14;;;-0.22;58.85
63306;BME280;50735;52.060;1.248;2022-12-18T11:22:56;101663.42;;;-0.40;58.59
63306;BME280;50735;52.060;1.248;2022-12-18T11:25:24;101660.58;;;-0.49;58.62
63306;BME280;50735;52.060;1.248;2022-12-18T11:27:54;101658.52;;;-0.32;58.01
63306;BME280;50735;52.060;1.248;2022-12-18T11:30:24;101655.00;;;-0.35;58.20
63306;BME280;50735;52.060;1.248;2022-12-18T11:32:56;101650.55;;;-0.33;58.13
63306;BME280;50735;52.060;1.248;2022-12-18T11:35:34;101644.50;;;-0.30;58.25
63306;BME280;50735;52.060;1.248;2022-12-18T11:38:13;101642.63;;;-0.33;58.80
63306;BME280;50735;52.060;1.248;2022-12-18T11:40:48;101648.77;;;-0.00;58.92
63306;BME280;50735;52.060;1.248;2022-12-18T11:43:22;101632.34;;;-0.34;58.49
63306;BME280;50735;52.060;1.248;2022-12-18T11:45:54;101628.83;;;0.10;68.83
63306;BME280;50735;52.060;1.248;2022-12-18T11:48:26;101616.54;;;1.19;55.84
63306;BME280;50735;52.060;1.248;2022-12-18T11:50:56;101619.68;;;0.85;56.68
63306;BME280;50735;52.060;1.248;2022-12-18T11:53:25;101625.80;;;0.75;56.60
63306;BME280;50735;52.060;1.248;2022-12-18T11:56:02;101618.53;;;0.63;56.19
63306;BME280;50735;52.060;1.248;2022-12-18T11:58:45;101604.37;;;0.60;55.77
63306;BME280;50735;52.060;1.248;2022-12-18T12:01:22;101604.84;;;0.64;56.16
63306;BME280;50735;52.060;1.248;2022-12-18T12:04:24;101604.09;;;0.52;55.79
63306;BME280;50735;52.060;1.248;2022-12-18T12:07:06;101608.99;;;0.57;55.71
63306;BME280;50735;52.060;1.248;2022-12-18T12:09:46;101595.93;;;0.80;55.75
63306;BME280;50735;52.060;1.248;2022-12-18T12:12:26;101600.91;;;0.51;55.56
63306;BME280;50735;52.060;1.248;2022-12-18T12:15:01;101587.86;;;0.33;55.97
63306;BME280;50735;52.060;1.248;2022-12-18T12:17:35;101584.23;;;0.27;55.62
63306;BME280;50735;52.060;1.248;2022-12-18T12:20:12;101581.22;;;0.25;55.86
63306;BME280;50735;52.060;1.248;2022-12-18T12:22:49;101570.34;;;0.15;56.04
63306;BME280;50735;52.060;1.248;2022-12-18T12:25:27;101564.05;;;0.11;55.64
63306;BME280;50735;52.060;1.248;2022-12-18T12:28:04;101556.24;;;0.11;55.85
63306;BME280;50735;52.060;1.248;2022-12-18T12:30:45;101571.88;;;-0.01;56.29
63306;BME280;50735;52.060;1.248;2022-12-18T12:33:24;101537.53;;;0.16;55.97
63306;BME280;50735;52.060;1.248;2022-12-18T12:35:59;101541.48;;;-0.06;55.75
63306;BME280;50735;52.060;1.248;2022-12-18T12:38:33;101530.18;;;0.40;55.11
63306;BME280;50735;52.060;1.248;2022-12-18T12:41:04;101503.40;;;0.34;54.93
63306;BME280;50735;52.060;1.248;2022-12-18T12:43:37;101513.67;;;-0.16;55.78
63306;BME280;50735;52.060;1.248;2022-12-18T12:46:09;101496.89;;;0.78;55.28
63306;BME280;50735;52.060;1.248;2022-12-18T12:48:42;101501.76;;;-0.22;55.67
63306;BME280;50735;52.060;1.248;2022-12-18T12:51:15;101495.01;;;-0.12;55.85
63306;BME280;50735;52.060;1.248;2022-12-18T12:53:43;101486.42;;;-0.03;56.42
63306;BME280;50735;52.060;1.248;2022-12-18T12:56:13;101484.44;;;-0.27;56.40
63306;BME280;50735;52.060;1.248;2022-12-18T12:58:49;101478.55;;;-0.24;56.78
63306;BME280;50735;52.060;1.248;2022-12-18T13:01:27;101482.37;;;-0.34;57.30
63306;BME280;50735;52.060;1.248;2022-12-18T13:04:03;101478.66;;;-0.35;57.69
63306;BME280;50735;52.060;1.248;2022-12-18T13:06:40;101481.58;;;-0.28;57.81